Sangen Maru — JL5229 — position and weather

sailwx.info

Track history (hours):
 
Tides and Currents Weather Stations Pressure Air Temp Water Temp Dewpoint Dewpoint Depression Visibility Wind Speed Wind Dir Waves Ship Positions

Sangen Maru

Last reported at 2018-Feb-19 03:00 UTC. Time now 2018-Feb-19 12:06 UTC.
Position N 41°27' E 141°32'.

Length 72 m; draft 3.9 m.

Type: Tanker. MMSI: 431501792.

Date/timePositionNaut miles runAvg speedWind from/ knotsBaromVisibWave heightAir tempDewpointWater temp
2018-Feb-19 03:00N 41°27' E 141°32'914.4
2018-Feb-19 02:22N 41°35' E 141°26'513.5
2018-Feb-19 02:00N 41°40' E 141°23'713.7
2018-Feb-19 01:30N 41°46' E 141°19'813.5
2018-Feb-19 00:56N 41°53' E 141°15'  
2018-Feb-16 07:41N 41°50' E 141°13'311.6
2018-Feb-16 07:23N 41°47' E 141°15'511.2
2018-Feb-16 06:58N 41°44' E 141°19'610.9
2018-Feb-16 06:27N 41°39' E 141°23'611.1
2018-Feb-16 05:57N 41°34' E 141°26'  
2018-Feb-13 19:23N 34°51' E 139°35'613.5
2018-Feb-13 18:56N 34°50' E 139°27'612.7
2018-Feb-13 18:29N 34°49' E 139°21'714.0
2018-Feb-13 17:59N 34°46' E 139°13'713.6
2018-Feb-13 17:29N 34°42' E 139°07'712.4
2018-Feb-13 16:54N 34°37' E 138°60'512.6
2018-Feb-13 16:30N 34°35' E 138°55'714.0
2018-Feb-13 16:00N 34°35' E 138°46'713.3
2018-Feb-13 15:28N 34°34' E 138°37'812.8
2018-Feb-13 14:52N 34°34' E 138°28'712.8
2018-Feb-13 14:19N 34°33' E 138°20'413.4
2018-Feb-13 14:00N 34°33' E 138°14'4413.3
2018-Feb-13 10:41N 34°35' E 137°21'513.9
2018-Feb-13 10:20N 34°35' E 137°15'413.7
2018-Feb-13 10:00N 34°34' E 137°10'812.2
2018-Feb-13 09:19N 34°34' E 136°59'513.6
2018-Feb-13 08:56N 34°38' E 136°55'613.2
2018-Feb-13 08:30N 34°42' E 136°49'713.4
2018-Feb-13 08:00N 34°47' E 136°46'713.2
2018-Feb-13 07:30N 34°54' E 136°46'612.5
2018-Feb-13 07:00N 34°60' E 136°49'1 2.4
2018-Feb-13 06:31N 34°60' E 136°51'0 0.0
2018-Feb-13 06:00N 34°60' E 136°51'0 0.0
2018-Feb-13 05:30N 34°60' E 136°51'0 0.0
2018-Feb-13 05:00N 34°60' E 136°51'0 0.0
2018-Feb-13 04:30N 34°60' E 136°51'0 0.0
2018-Feb-13 04:00N 34°60' E 136°51'0 0.0
2018-Feb-13 03:30N 34°60' E 136°51'0 0.0
2018-Feb-13 03:00N 34°60' E 136°51'2 3.3
2018-Feb-13 02:30N 35°01' E 136°50'5 9.8
2018-Feb-13 02:00N 34°57' E 136°47'611.1
2018-Feb-13 01:30N 34°51' E 136°47'510.7
2018-Feb-13 01:00N 34°46' E 136°48'510.2
2018-Feb-13 00:30N 34°42' E 136°51'17 8.0
2018-Feb-12 22:24N 34°34' E 137°09'53 9.9
2018-Feb-12 17:00N 34°34' E 138°14'16 9.6
2018-Feb-12 15:18N 34°34' E 138°34'3 8.9
2018-Feb-12 15:00N 34°34' E 138°37'4 8.3
2018-Feb-12 14:27N 34°34' E 138°43'4 7.6
2018-Feb-12 13:59N 34°34' E 138°47'4 7.1
2018-Feb-12 13:25N 34°35' E 138°52'3 7.4
2018-Feb-12 13:00N 34°36' E 138°55'5 8.0
2018-Feb-12 12:22N 34°38' E 139°01'3 8.9
2018-Feb-12 12:00N 34°41' E 139°03'6 9.0
2018-Feb-12 11:23N 34°46' E 139°07'9 9.4
2018-Feb-12 10:25N 34°53' E 139°13'4 9.7
2018-Feb-12 09:58N 34°55' E 139°17'6 9.4
2018-Feb-12 09:22N 34°58' E 139°23'4 9.1
2018-Feb-12 08:58N 35°00' E 139°27'4 9.2
2018-Feb-12 08:30N 35°02' E 139°32'5 9.1
2018-Feb-12 08:00N 35°05' E 139°36'5 9.5
2018-Feb-12 07:27N 35°07' E 139°42'4 9.7
2018-Feb-12 07:00N 35°11' E 139°45'510.2
2018-Feb-12 06:30N 35°16' E 139°46'611.8
2018-Feb-12 06:00N 35°21' E 139°42'510.3
2018-Feb-12 05:30N 35°26' E 139°44'510.1
2018-Feb-12 05:00N 35°30' E 139°48'1 2.7
2018-Feb-12 04:30N 35°31' E 139°46'0 0.0
2018-Feb-12 04:00N 35°31' E 139°46'0 0.0
2018-Feb-12 03:30N 35°31' E 139°46'0 0.0
2018-Feb-12 02:58N 35°31' E 139°46'0 0.0
2018-Feb-12 02:28N 35°31' E 139°46'0 0.0
2018-Feb-12 01:52N 35°31' E 139°46'0 0.0
2018-Feb-12 01:28N 35°31' E 139°46'0 0.0
2018-Feb-12 00:52N 35°31' E 139°46'0 0.0
2018-Feb-12 00:19N 35°31' E 139°46'0 0.0
2018-Feb-11 23:59N 35°31' E 139°46'0 0.0
2018-Feb-11 23:30N 35°31' E 139°46'0 0.6
2018-Feb-11 23:00N 35°30' E 139°46'2 4.5
2018-Feb-11 22:30N 35°30' E 139°49'4 8.2
2018-Feb-11 22:00N 35°29' E 139°54'1 0.4
2018-Feb-11 20:40N 35°29' E 139°54'0 0.0
2018-Feb-11 20:19N 35°29' E 139°54'0 0.0
2018-Feb-11 19:46N 35°29' E 139°54'0 0.0
2018-Feb-11 17:22N 35°29' E 139°54'0 0.0
2018-Feb-11 16:16N 35°29' E 139°54'0 0.0
2018-Feb-11 15:58N 35°29' E 139°54'0 0.0
2018-Feb-11 15:25N 35°29' E 139°54'0 0.0
2018-Feb-11 14:37N 35°29' E 139°54'0 0.0
2018-Feb-11 14:28N 35°29' E 139°54'0 0.0
2018-Feb-11 13:52N 35°29' E 139°54'0 0.0
2018-Feb-11 13:10N 35°29' E 139°54'0 0.0
2018-Feb-11 12:46N 35°29' E 139°54'0 0.0
2018-Feb-11 12:28N 35°29' E 139°54'0 0.0
2018-Feb-11 11:58N 35°29' E 139°54'0 0.0
2018-Feb-11 11:25N 35°29' E 139°54'0 0.0
2018-Feb-11 10:49N 35°29' E 139°54'0 0.0
2018-Feb-11 10:13N 35°29' E 139°54'0 0.0
2018-Feb-11 09:58N 35°29' E 139°54'0 0.0
2018-Feb-11 09:28N 35°29' E 139°54'0 0.0
2018-Feb-11 05:21N 35°29' E 139°54'1 2.6
2018-Feb-11 05:00N 35°29' E 139°55'3 0.6
2018-Feb-10 23:28N 35°27' E 139°58'3 5.4
2018-Feb-10 22:57N 35°29' E 139°56'2 2.1
2018-Feb-10 22:03N 35°28' E 139°54'0 0.0
2018-Feb-10 20:09N 35°28' E 139°54'0 0.0
2018-Feb-10 19:45N 35°28' E 139°54'0 0.0
2018-Feb-10 19:21N 35°28' E 139°54'0 0.0
2018-Feb-10 18:00N 35°28' E 139°54'0 0.0
2018-Feb-10 17:30N 35°28' E 139°54'0 0.0
2018-Feb-10 17:00N 35°28' E 139°54'0 0.0
2018-Feb-10 16:24N 35°28' E 139°54'0 0.0
2018-Feb-10 16:00N 35°28' E 139°54'0 0.0
2018-Feb-10 15:27N 35°28' E 139°54'0 0.0
2018-Feb-10 14:54N 35°28' E 139°54'0 0.0
2018-Feb-10 14:27N 35°28' E 139°54'0 0.0
2018-Feb-10 13:21N 35°28' E 139°54'0 0.0
2018-Feb-10 13:00N 35°28' E 139°54'0 0.0
2018-Feb-10 12:30N 35°28' E 139°54'4 7.3
2018-Feb-10 12:00N 35°27' E 139°50'611.9
2018-Feb-10 11:31N 35°22' E 139°45'510.5
2018-Feb-10 11:00N 35°17' E 139°46'611.1
2018-Feb-10 10:30N 35°12' E 139°47'611.7
2018-Feb-10 10:00N 35°06' E 139°44'612.2
2018-Feb-10 09:31N 35°02' E 139°39'812.8
2018-Feb-10 08:52N 34°58' E 139°30'813.5
2018-Feb-10 08:14N 34°53' E 139°22'413.6
2018-Feb-10 07:59N 34°51' E 139°18'613.1
2018-Feb-10 07:30N 34°47' E 139°13'712.6
2018-Feb-10 06:59N 34°42' E 139°07'712.7
2018-Feb-10 06:27N 34°38' E 139°00'613.0
2018-Feb-10 05:57N 34°35' E 138°53'912.1
2018-Feb-10 05:12N 34°34' E 138°42'411.7
2018-Feb-10 04:52N 34°34' E 138°38'511.4
2018-Feb-10 04:26N 34°33' E 138°32'811.7
2018-Feb-10 03:44N 34°33' E 138°22'411.6
2018-Feb-10 03:22N 34°32' E 138°17'192 9.7
2018-Feb-09 07:30N 34°20' E 134°24'  
Track history (hours):
 
Tides and Currents Weather Stations Pressure Air Temp Water Temp Dewpoint Dewpoint Depression Visibility Wind Speed Wind Dir Waves Ship Positions

Sangen Maru

Last reported at 2018-Feb-19 03:00 UTC. Time now 2018-Feb-19 12:06 UTC.
Position N 41°27' E 141°32'.

Length 72 m; draft 3.9 m.

Type: Tanker. MMSI: 431501792.

Date/timePositionNaut miles runAvg speedWind from/ knotsBaromVisibWave heightAir tempDewpointWater temp
2018-Feb-19 03:00N 41°27' E 141°32'914.4
2018-Feb-19 02:22N 41°35' E 141°26'513.5
2018-Feb-19 02:00N 41°40' E 141°23'713.7
2018-Feb-19 01:30N 41°46' E 141°19'813.5
2018-Feb-19 00:56N 41°53' E 141°15'  
2018-Feb-16 07:41N 41°50' E 141°13'311.6
2018-Feb-16 07:23N 41°47' E 141°15'511.2
2018-Feb-16 06:58N 41°44' E 141°19'610.9
2018-Feb-16 06:27N 41°39' E 141°23'611.1
2018-Feb-16 05:57N 41°34' E 141°26'  
2018-Feb-13 19:23N 34°51' E 139°35'613.5
2018-Feb-13 18:56N 34°50' E 139°27'612.7
2018-Feb-13 18:29N 34°49' E 139°21'714.0
2018-Feb-13 17:59N 34°46' E 139°13'713.6
2018-Feb-13 17:29N 34°42' E 139°07'712.4
2018-Feb-13 16:54N 34°37' E 138°60'512.6
2018-Feb-13 16:30N 34°35' E 138°55'714.0
2018-Feb-13 16:00N 34°35' E 138°46'713.3
2018-Feb-13 15:28N 34°34' E 138°37'812.8
2018-Feb-13 14:52N 34°34' E 138°28'712.8
2018-Feb-13 14:19N 34°33' E 138°20'413.4
2018-Feb-13 14:00N 34°33' E 138°14'4413.3
2018-Feb-13 10:41N 34°35' E 137°21'513.9
2018-Feb-13 10:20N 34°35' E 137°15'413.7
2018-Feb-13 10:00N 34°34' E 137°10'812.2
2018-Feb-13 09:19N 34°34' E 136°59'513.6
2018-Feb-13 08:56N 34°38' E 136°55'613.2
2018-Feb-13 08:30N 34°42' E 136°49'713.4
2018-Feb-13 08:00N 34°47' E 136°46'713.2
2018-Feb-13 07:30N 34°54' E 136°46'612.5
2018-Feb-13 07:00N 34°60' E 136°49'1 2.4
2018-Feb-13 06:31N 34°60' E 136°51'0 0.0
2018-Feb-13 06:00N 34°60' E 136°51'0 0.0
2018-Feb-13 05:30N 34°60' E 136°51'0 0.0
2018-Feb-13 05:00N 34°60' E 136°51'0 0.0
2018-Feb-13 04:30N 34°60' E 136°51'0 0.0
2018-Feb-13 04:00N 34°60' E 136°51'0 0.0
2018-Feb-13 03:30N 34°60' E 136°51'0 0.0
2018-Feb-13 03:00N 34°60' E 136°51'2 3.3
2018-Feb-13 02:30N 35°01' E 136°50'5 9.8
2018-Feb-13 02:00N 34°57' E 136°47'611.1
2018-Feb-13 01:30N 34°51' E 136°47'510.7
2018-Feb-13 01:00N 34°46' E 136°48'510.2
2018-Feb-13 00:30N 34°42' E 136°51'17 8.0
2018-Feb-12 22:24N 34°34' E 137°09'53 9.9
2018-Feb-12 17:00N 34°34' E 138°14'16 9.6
2018-Feb-12 15:18N 34°34' E 138°34'3 8.9
2018-Feb-12 15:00N 34°34' E 138°37'4 8.3
2018-Feb-12 14:27N 34°34' E 138°43'4 7.6
2018-Feb-12 13:59N 34°34' E 138°47'4 7.1
2018-Feb-12 13:25N 34°35' E 138°52'3 7.4
2018-Feb-12 13:00N 34°36' E 138°55'5 8.0
2018-Feb-12 12:22N 34°38' E 139°01'3 8.9
2018-Feb-12 12:00N 34°41' E 139°03'6 9.0
2018-Feb-12 11:23N 34°46' E 139°07'9 9.4
2018-Feb-12 10:25N 34°53' E 139°13'4 9.7
2018-Feb-12 09:58N 34°55' E 139°17'6 9.4
2018-Feb-12 09:22N 34°58' E 139°23'4 9.1
2018-Feb-12 08:58N 35°00' E 139°27'4 9.2
2018-Feb-12 08:30N 35°02' E 139°32'5 9.1
2018-Feb-12 08:00N 35°05' E 139°36'5 9.5
2018-Feb-12 07:27N 35°07' E 139°42'4 9.7
2018-Feb-12 07:00N 35°11' E 139°45'510.2
2018-Feb-12 06:30N 35°16' E 139°46'611.8
2018-Feb-12 06:00N 35°21' E 139°42'510.3
2018-Feb-12 05:30N 35°26' E 139°44'510.1
2018-Feb-12 05:00N 35°30' E 139°48'1 2.7
2018-Feb-12 04:30N 35°31' E 139°46'0 0.0
2018-Feb-12 04:00N 35°31' E 139°46'0 0.0
2018-Feb-12 03:30N 35°31' E 139°46'0 0.0
2018-Feb-12 02:58N 35°31' E 139°46'0 0.0
2018-Feb-12 02:28N 35°31' E 139°46'0 0.0
2018-Feb-12 01:52N 35°31' E 139°46'0 0.0
2018-Feb-12 01:28N 35°31' E 139°46'0 0.0
2018-Feb-12 00:52N 35°31' E 139°46'0 0.0
2018-Feb-12 00:19N 35°31' E 139°46'0 0.0
2018-Feb-11 23:59N 35°31' E 139°46'0 0.0
2018-Feb-11 23:30N 35°31' E 139°46'0 0.6
2018-Feb-11 23:00N 35°30' E 139°46'2 4.5
2018-Feb-11 22:30N 35°30' E 139°49'4 8.2
2018-Feb-11 22:00N 35°29' E 139°54'1 0.4
2018-Feb-11 20:40N 35°29' E 139°54'0 0.0
2018-Feb-11 20:19N 35°29' E 139°54'0 0.0
2018-Feb-11 19:46N 35°29' E 139°54'0 0.0
2018-Feb-11 17:22N 35°29' E 139°54'0 0.0
2018-Feb-11 16:16N 35°29' E 139°54'0 0.0
2018-Feb-11 15:58N 35°29' E 139°54'0 0.0
2018-Feb-11 15:25N 35°29' E 139°54'0 0.0
2018-Feb-11 14:37N 35°29' E 139°54'0 0.0
2018-Feb-11 14:28N 35°29' E 139°54'0 0.0
2018-Feb-11 13:52N 35°29' E 139°54'0 0.0
2018-Feb-11 13:10N 35°29' E 139°54'0 0.0
2018-Feb-11 12:46N 35°29' E 139°54'0 0.0
2018-Feb-11 12:28N 35°29' E 139°54'0 0.0
2018-Feb-11 11:58N 35°29' E 139°54'0 0.0
2018-Feb-11 11:25N 35°29' E 139°54'0 0.0
2018-Feb-11 10:49N 35°29' E 139°54'0 0.0
2018-Feb-11 10:13N 35°29' E 139°54'0 0.0
2018-Feb-11 09:58N 35°29' E 139°54'0 0.0
2018-Feb-11 09:28N 35°29' E 139°54'0 0.0
2018-Feb-11 05:21N 35°29' E 139°54'1 2.6
2018-Feb-11 05:00N 35°29' E 139°55'3 0.6
2018-Feb-10 23:28N 35°27' E 139°58'3 5.4
2018-Feb-10 22:57N 35°29' E 139°56'2 2.1
2018-Feb-10 22:03N 35°28' E 139°54'0 0.0
2018-Feb-10 20:09N 35°28' E 139°54'0 0.0
2018-Feb-10 19:45N 35°28' E 139°54'0 0.0
2018-Feb-10 19:21N 35°28' E 139°54'0 0.0
2018-Feb-10 18:00N 35°28' E 139°54'0 0.0
2018-Feb-10 17:30N 35°28' E 139°54'0 0.0
2018-Feb-10 17:00N 35°28' E 139°54'0 0.0
2018-Feb-10 16:24N 35°28' E 139°54'0 0.0
2018-Feb-10 16:00N 35°28' E 139°54'0 0.0
2018-Feb-10 15:27N 35°28' E 139°54'0 0.0
2018-Feb-10 14:54N 35°28' E 139°54'0 0.0
2018-Feb-10 14:27N 35°28' E 139°54'0 0.0
2018-Feb-10 13:21N 35°28' E 139°54'0 0.0
2018-Feb-10 13:00N 35°28' E 139°54'0 0.0
2018-Feb-10 12:30N 35°28' E 139°54'4 7.3
2018-Feb-10 12:00N 35°27' E 139°50'611.9
2018-Feb-10 11:31N 35°22' E 139°45'510.5
2018-Feb-10 11:00N 35°17' E 139°46'611.1
2018-Feb-10 10:30N 35°12' E 139°47'611.7
2018-Feb-10 10:00N 35°06' E 139°44'612.2
2018-Feb-10 09:31N 35°02' E 139°39'812.8
2018-Feb-10 08:52N 34°58' E 139°30'813.5
2018-Feb-10 08:14N 34°53' E 139°22'413.6
2018-Feb-10 07:59N 34°51' E 139°18'613.1
2018-Feb-10 07:30N 34°47' E 139°13'712.6
2018-Feb-10 06:59N 34°42' E 139°07'712.7
2018-Feb-10 06:27N 34°38' E 139°00'613.0
2018-Feb-10 05:57N 34°35' E 138°53'912.1
2018-Feb-10 05:12N 34°34' E 138°42'411.7
2018-Feb-10 04:52N 34°34' E 138°38'511.4
2018-Feb-10 04:26N 34°33' E 138°32'811.7
2018-Feb-10 03:44N 34°33' E 138°22'411.6
2018-Feb-10 03:22N 34°32' E 138°17'192 9.7
2018-Feb-09 07:30N 34°20' E 134°24'  

Dump ship's entire track history